createdAt,value
2022-10-05T00:00:56.253Z,83.53
2022-10-05T00:03:27.918Z,84.08
2022-10-05T00:05:55.503Z,83.52
2022-10-05T00:08:25.829Z,82.05
2022-10-05T00:10:53.703Z,81.44
2022-10-05T00:13:25.871Z,83.10
2022-10-05T00:16:12.252Z,83.41
2022-10-05T00:18:41.370Z,83.73
2022-10-05T00:21:35.188Z,84.76
2022-10-05T00:24:02.878Z,85.32
2022-10-05T00:26:34.230Z,84.81
2022-10-05T00:29:07.062Z,84.24
2022-10-05T00:31:37.122Z,83.87
2022-10-05T00:34:04.890Z,83.80
2022-10-05T00:36:32.582Z,84.13
2022-10-05T00:39:02.997Z,85.68
2022-10-05T00:41:59.434Z,86.22
2022-10-05T00:44:41.387Z,87.42
2022-10-05T00:47:11.637Z,88.38
2022-10-05T00:50:14.613Z,87.78
2022-10-05T00:53:09.436Z,87.95
2022-10-05T00:56:02.453Z,88.26
2022-10-05T00:58:54.283Z,88.71
2022-10-05T01:01:43.967Z,88.23
2022-10-05T01:04:54.249Z,87.57
2022-10-05T01:07:48.378Z,86.74
2022-10-05T01:10:40.287Z,87.03
2022-10-05T01:13:22.751Z,86.87
2022-10-05T01:16:04.415Z,86.24
2022-10-05T01:18:45.008Z,86.36
2022-10-05T01:21:21.465Z,86.01
2022-10-05T01:24:29.338Z,86.96
2022-10-05T01:27:24.213Z,86.82
2022-10-05T01:30:02.909Z,87.03
2022-10-05T01:32:45.331Z,86.78
2022-10-05T01:35:40.778Z,86.32
2022-10-05T01:38:35.639Z,86.58
2022-10-05T01:41:36.701Z,86.70
2022-10-05T01:45:09.350Z,87.84
2022-10-05T01:47:54.707Z,85.85
2022-10-05T01:50:50.098Z,86.62
2022-10-05T01:53:33.619Z,86.16
2022-10-05T01:56:13.264Z,86.86
2022-10-05T01:59:31.403Z,88.28
2022-10-05T02:02:21.543Z,88.50
2022-10-05T02:05:03.012Z,88.10
2022-10-05T02:07:45.941Z,88.50
2022-10-05T02:10:26.165Z,88.42
2022-10-05T02:13:05.051Z,88.67
2022-10-05T02:15:49.409Z,89.17
2022-10-05T02:18:24.132Z,88.96
2022-10-05T02:20:56.359Z,89.00
2022-10-05T02:23:33.013Z,89.04
2022-10-05T02:26:02.594Z,89.40
2022-10-05T02:29:00.369Z,89.56
2022-10-05T02:31:46.022Z,89.34
2022-10-05T02:34:41.592Z,88.51
2022-10-05T02:37:36.972Z,89.49
2022-10-05T02:40:19.620Z,88.87
2022-10-05T02:43:00.039Z,88.92
2022-10-05T02:45:47.231Z,83.71
2022-10-05T02:48:42.119Z,84.99
2022-10-05T02:51:29.210Z,87.14
2022-10-05T02:54:25.522Z,88.81
2022-10-05T02:57:09.796Z,91.04
2022-10-05T03:00:04.655Z,90.50
2022-10-05T03:03:07.223Z,90.30
2022-10-05T03:05:44.277Z,89.61
2022-10-05T03:08:25.641Z,91.37
2022-10-05T03:11:03.210Z,92.83
2022-10-05T03:13:57.377Z,93.43
2022-10-05T03:16:56.295Z,92.13
2022-10-05T03:19:44.957Z,92.27
2022-10-05T03:22:44.387Z,93.21
2022-10-05T03:25:26.991Z,93.95
2022-10-05T03:28:27.267Z,94.34
2022-10-05T03:31:09.902Z,95.37
2022-10-05T03:34:00.855Z,95.72
2022-10-05T03:37:10.326Z,96.53
2022-10-05T03:39:47.339Z,95.74
2022-10-05T03:42:37.698Z,95.11
2022-10-05T03:45:58.106Z,95.09
2022-10-05T03:48:47.834Z,95.53
2022-10-05T03:51:38.547Z,94.61
2022-10-05T03:54:29.302Z,95.38
2022-10-05T03:57:28.497Z,96.07
2022-10-05T04:00:16.577Z,97.10
2022-10-05T04:03:13.196Z,97.22
2022-10-05T04:05:54.313Z,97.49
2022-10-05T04:09:14.288Z,98.17
2022-10-05T04:12:25.535Z,99.00
2022-10-05T04:15:03.825Z,99.56
2022-10-05T04:17:45.247Z,98.71
2022-10-05T04:20:18.728Z,99.04
2022-10-05T04:23:25.407Z,99.17
2022-10-05T04:26:06.324Z,100.00
2022-10-05T04:29:00.844Z,100.00
2022-10-05T04:32:22.818Z,98.94
2022-10-05T04:35:27.134Z,97.24
2022-10-05T04:38:03.697Z,98.04
2022-10-05T04:41:02.937Z,97.81
2022-10-05T04:44:22.867Z,97.84
2022-10-05T04:47:03.499Z,97.76
2022-10-05T04:50:07.182Z,97.30
2022-10-05T04:52:59.119Z,96.39
2022-10-05T04:56:10.839Z,96.13
2022-10-05T04:58:45.957Z,95.74
2022-10-05T05:01:40.092Z,95.09
2022-10-05T05:04:45.408Z,95.26
2022-10-05T05:07:44.609Z,96.25
2022-10-05T05:11:16.228Z,94.81
2022-10-05T05:14:07.575Z,95.29
2022-10-05T05:16:44.418Z,95.78
2022-10-05T05:19:41.498Z,92.99
2022-10-05T05:22:50.470Z,92.67
2022-10-05T05:25:42.689Z,90.78
2022-10-05T05:28:34.771Z,88.54
2022-10-05T05:31:45.981Z,88.21
2022-10-05T05:34:58.026Z,89.30
2022-10-05T05:37:36.750Z,88.61
2022-10-05T05:40:17.629Z,88.64
2022-10-05T05:42:59.098Z,89.18
2022-10-05T05:45:43.748Z,87.60
2022-10-05T05:48:39.066Z,86.56
2022-10-05T05:51:15.443Z,87.16
2022-10-05T05:54:05.392Z,84.75
2022-10-05T05:56:41.627Z,84.94
2022-10-05T05:59:32.716Z,85.12
2022-10-05T06:02:12.191Z,84.47
2022-10-05T06:04:52.509Z,84.99
2022-10-05T06:07:30.357Z,85.16
2022-10-05T06:10:22.405Z,84.41
2022-10-05T06:13:09.309Z,84.82
2022-10-05T06:15:47.549Z,84.37
2022-10-05T06:18:20.705Z,84.25
2022-10-05T06:21:03.133Z,83.51
2022-10-05T06:23:54.919Z,81.84
2022-10-05T06:26:32.112Z,81.32
2022-10-05T06:29:08.879Z,80.53
2022-10-05T06:32:24.845Z,79.33
2022-10-05T06:35:12.500Z,78.45
2022-10-05T06:38:01.358Z,77.23
2022-10-05T06:40:55.593Z,77.02
2022-10-05T06:43:31.935Z,76.32
2022-10-05T06:46:31.369Z,76.39
2022-10-05T06:49:34.425Z,76.44
2022-10-05T06:53:11.116Z,75.41
2022-10-05T06:56:13.908Z,76.35
2022-10-05T06:59:06.415Z,74.18
2022-10-05T07:01:52.174Z,73.14
2022-10-05T07:04:59.781Z,74.31
2022-10-05T07:07:43.755Z,74.33
2022-10-05T07:10:20.814Z,72.43
2022-10-05T07:13:34.373Z,70.32
2022-10-05T07:21:18.165Z,68.94
2022-10-05T07:24:29.334Z,68.71
2022-10-05T07:27:18.223Z,69.08
2022-10-05T07:30:11.543Z,67.46
2022-10-05T07:33:21.082Z,69.07
2022-10-05T07:36:42.224Z,68.07
2022-10-05T07:39:59.024Z,61.53
2022-10-05T07:43:57.573Z,59.69
2022-10-05T07:47:13.387Z,61.81
2022-10-05T08:13:56.366Z,54.76
2022-10-05T08:16:31.239Z,54.31
2022-10-05T08:19:02.448Z,51.53
2022-10-05T08:22:06.628Z,51.00
2022-10-05T08:24:48.658Z,51.49
2022-10-05T08:27:33.999Z,51.68
2022-10-05T08:30:17.066Z,53.22
2022-10-05T08:33:18.711Z,51.60
2022-10-05T08:36:20.412Z,49.29
2022-10-05T08:39:17.334Z,48.08
2022-10-05T08:42:09.374Z,48.55
2022-10-05T08:45:14.059Z,47.07
2022-10-05T08:48:06.453Z,46.31
2022-10-05T08:51:00.553Z,46.98
2022-10-05T08:53:55.335Z,46.49
2022-10-05T08:57:13.876Z,44.31
2022-10-05T08:59:57.159Z,44.46
2022-10-05T09:02:47.387Z,43.29
2022-10-05T09:05:41.812Z,43.06
2022-10-05T09:08:51.386Z,43.08
2022-10-05T09:11:41.908Z,41.81
2022-10-05T09:14:25.365Z,42.44
2022-10-05T09:17:04.803Z,43.10
2022-10-05T09:19:47.564Z,43.93
2022-10-05T09:22:40.336Z,42.44
2022-10-05T09:25:39.054Z,43.57
2022-10-05T09:28:43.314Z,40.73
2022-10-05T09:31:44.976Z,40.97
2022-10-05T09:34:43.296Z,40.73
2022-10-05T09:38:10.844Z,38.75
2022-10-05T09:41:20.003Z,39.69
2022-10-05T09:44:12.107Z,39.63
2022-10-05T09:46:54.252Z,39.25
2022-10-05T09:49:39.617Z,38.56
2022-10-05T09:52:28.522Z,38.13
2022-10-05T09:55:46.147Z,36.30
2022-10-05T09:59:38.017Z,35.61
2022-10-05T10:02:27.773Z,35.86
2022-10-05T10:05:40.900Z,36.13
2022-10-05T10:08:35.457Z,36.29
2022-10-05T10:11:41.215Z,36.75
2022-10-05T10:15:09.466Z,35.93
2022-10-05T10:18:15.998Z,36.44
2022-10-05T10:20:45.971Z,34.80
2022-10-05T10:23:28.978Z,34.39
2022-10-05T10:26:36.302Z,35.28
2022-10-05T10:29:57.226Z,34.93
2022-10-05T10:32:52.403Z,34.50
2022-10-05T10:36:06.143Z,34.19
2022-10-05T10:38:58.543Z,32.42
2022-10-05T10:41:52.155Z,33.24
2022-10-05T10:44:40.986Z,33.54
2022-10-05T10:47:54.579Z,32.26
2022-10-05T10:50:50.766Z,31.47
2022-10-05T10:53:36.304Z,31.16
2022-10-05T10:56:36.088Z,31.32
2022-10-05T10:59:48.476Z,31.66
2022-10-05T11:02:39.935Z,30.29
2022-10-05T11:05:52.248Z,30.07
2022-10-05T11:08:58.835Z,31.27
2022-10-05T11:11:54.573Z,32.17
2022-10-05T11:14:46.398Z,30.55
2022-10-05T11:18:02.454Z,32.12
2022-10-05T11:21:09.970Z,29.44
2022-10-05T11:23:58.857Z,30.37
2022-10-05T11:26:41.247Z,30.89
2022-10-05T11:29:52.115Z,27.92
2022-10-05T11:33:11.299Z,29.03
2022-10-05T11:36:30.789Z,29.24
2022-10-05T11:39:22.514Z,28.12
2022-10-05T11:42:20.143Z,29.96
2022-10-05T11:45:08.707Z,28.56
2022-10-05T11:48:22.519Z,28.28
2022-10-05T11:51:28.862Z,28.86
2022-10-05T11:54:02.452Z,27.59
2022-10-05T11:56:36.717Z,27.56
2022-10-05T11:59:43.006Z,27.36
2022-10-05T12:02:28.178Z,27.69
2022-10-05T12:05:21.296Z,28.57
2022-10-05T12:08:03.653Z,26.89
2022-10-05T12:11:01.229Z,27.92
2022-10-05T12:13:55.418Z,28.14
2022-10-05T12:16:43.906Z,28.03
2022-10-05T12:19:59.944Z,27.42
2022-10-05T12:23:05.552Z,26.18
2022-10-05T12:26:14.885Z,24.99
2022-10-05T12:29:11.440Z,26.50
2022-10-05T12:32:12.870Z,26.60
2022-10-05T12:35:06.232Z,26.30
2022-10-05T12:38:02.877Z,25.54
2022-10-05T12:40:53.536Z,26.60
2022-10-05T12:44:07.060Z,27.01
2022-10-05T12:47:12.772Z,26.59
2022-10-05T12:49:58.824Z,26.37
2022-10-05T12:52:51.041Z,24.70
2022-10-05T12:55:54.036Z,24.19
2022-10-05T12:59:09.847Z,24.25
2022-10-05T13:02:08.255Z,23.31
2022-10-05T13:04:41.179Z,25.08
2022-10-05T13:07:40.453Z,24.12
2022-10-05T13:11:15.284Z,23.87
2022-10-05T13:14:23.242Z,22.96
2022-10-05T13:17:09.628Z,23.33
2022-10-05T13:19:45.060Z,22.99
2022-10-05T13:23:06.660Z,22.45
2022-10-05T13:26:12.584Z,21.96
2022-10-05T13:29:43.942Z,21.51
2022-10-05T13:33:35.093Z,20.67
2022-10-05T13:36:18.677Z,20.62
2022-10-05T13:39:37.668Z,20.83
2022-10-05T13:42:21.875Z,20.50
2022-10-05T13:45:02.867Z,20.52
2022-10-05T13:47:45.408Z,20.68
2022-10-05T13:51:02.382Z,20.08
2022-10-05T13:54:11.787Z,20.96
2022-10-05T13:56:55.257Z,20.12
2022-10-05T13:59:47.123Z,20.81
2022-10-05T14:02:40.516Z,20.18
2022-10-05T14:05:22.904Z,20.03
2022-10-05T14:07:54.036Z,19.69
2022-10-05T14:10:43.013Z,19.65
2022-10-05T14:13:43.105Z,20.54
2022-10-05T14:16:26.322Z,20.15
2022-10-05T14:19:20.157Z,19.72
2022-10-05T14:22:02.202Z,19.83
2022-10-05T14:24:49.181Z,19.84
2022-10-05T14:27:28.871Z,19.65
2022-10-05T14:30:17.521Z,20.04
2022-10-05T14:33:08.446Z,19.57
2022-10-05T14:35:52.211Z,20.08
2022-10-05T14:38:36.270Z,19.96
2022-10-05T14:41:27.962Z,20.00
2022-10-05T14:44:25.682Z,19.95
2022-10-05T14:47:02.840Z,21.00
2022-10-05T14:49:36.343Z,20.76
2022-10-05T14:52:32.651Z,21.86
2022-10-05T14:55:37.451Z,22.34
2022-10-05T14:58:56.451Z,22.11
2022-10-05T15:01:31.588Z,22.78
2022-10-05T15:04:43.048Z,25.04
2022-10-05T15:07:26.293Z,26.23
2022-10-05T15:10:23.976Z,27.16
2022-10-05T15:13:17.511Z,27.32
2022-10-05T15:16:37.866Z,28.56
2022-10-05T15:19:39.395Z,29.06
2022-10-05T15:22:34.067Z,29.58
2022-10-05T15:25:42.429Z,31.41
2022-10-05T15:28:38.403Z,32.10
2022-10-05T15:31:46.100Z,33.31
2022-10-05T15:35:04.348Z,33.88
2022-10-05T15:40:54.818Z,37.20
2022-10-05T15:43:27.165Z,37.27
2022-10-05T15:46:20.177Z,37.81
2022-10-05T15:49:26.736Z,37.97
2022-10-05T15:52:45.570Z,37.50
2022-10-05T15:55:36.297Z,37.80
2022-10-05T15:59:00.394Z,39.16
2022-10-05T16:01:34.924Z,39.95
2022-10-05T16:04:50.067Z,40.98
2022-10-05T16:07:50.141Z,41.70
2022-10-05T16:10:27.260Z,42.63
2022-10-05T16:13:05.101Z,43.59
2022-10-05T16:15:59.452Z,43.36
2022-10-05T16:18:51.199Z,43.33
2022-10-05T16:21:54.575Z,43.65
2022-10-05T16:25:20.291Z,43.98
2022-10-05T16:28:05.662Z,43.52
2022-10-05T16:31:19.466Z,44.37
2022-10-05T16:34:17.239Z,44.02
2022-10-05T16:36:54.007Z,42.81
2022-10-05T16:39:39.822Z,42.19
2022-10-05T16:42:13.286Z,43.34
2022-10-05T16:44:57.280Z,43.49
2022-10-05T16:48:10.577Z,43.81
2022-10-05T16:51:17.565Z,44.13
2022-10-05T16:54:19.033Z,44.10
2022-10-05T16:56:59.478Z,44.17
2022-10-05T17:00:16.681Z,44.10
2022-10-05T17:03:32.914Z,44.60
2022-10-05T17:06:41.776Z,45.56
2022-10-05T17:10:15.295Z,45.85
2022-10-05T17:13:44.018Z,46.43
2022-10-05T17:17:02.561Z,46.31
2022-10-05T17:20:07.666Z,46.82
2022-10-05T17:23:13.906Z,47.40
2022-10-05T17:25:56.732Z,47.06
2022-10-05T17:29:03.322Z,47.89
2022-10-05T17:31:33.014Z,47.10
2022-10-05T17:34:12.263Z,48.16
2022-10-05T17:36:57.342Z,48.08
2022-10-05T17:39:52.267Z,48.76
2022-10-05T17:42:36.384Z,49.49
2022-10-05T17:45:13.655Z,50.17
2022-10-05T17:48:07.909Z,50.12
2022-10-05T17:51:07.312Z,50.60
2022-10-05T17:54:07.027Z,51.26
2022-10-05T17:56:47.971Z,51.08
2022-10-05T17:59:52.299Z,52.13
2022-10-05T18:02:22.996Z,50.94
2022-10-05T18:05:04.711Z,51.69
2022-10-05T18:07:35.614Z,52.34
2022-10-05T18:10:17.093Z,52.77
2022-10-05T18:12:48.664Z,54.00
2022-10-05T18:15:48.972Z,53.13
2022-10-05T18:18:54.814Z,53.64
2022-10-05T18:21:32.296Z,54.95
2022-10-05T18:24:30.000Z,54.12
2022-10-05T18:27:32.805Z,54.49
2022-10-05T18:30:18.298Z,54.21
2022-10-05T18:33:50.729Z,53.98
2022-10-05T18:36:45.381Z,54.58
2022-10-05T18:40:01.794Z,54.89
2022-10-05T18:43:18.128Z,55.08
2022-10-05T18:49:49.577Z,56.15
2022-10-05T18:52:44.670Z,56.45
2022-10-05T18:55:19.857Z,55.15
2022-10-05T18:58:42.377Z,55.36
2022-10-05T19:01:49.741Z,56.61
2022-10-05T19:04:47.226Z,53.24
2022-10-05T19:07:44.380Z,56.21
2022-10-05T19:10:46.169Z,56.80
2022-10-05T19:13:38.016Z,57.19
2022-10-05T19:16:38.433Z,57.01
2022-10-05T19:19:12.360Z,55.74
2022-10-05T19:22:40.330Z,56.33
2022-10-05T19:25:31.709Z,56.99
2022-10-05T19:28:21.333Z,57.64
2022-10-05T19:31:38.019Z,58.23
2022-10-05T19:34:27.104Z,61.57
2022-10-05T19:37:10.001Z,63.51
2022-10-05T19:40:07.231Z,65.19
2022-10-05T19:43:06.260Z,65.86
2022-10-05T19:45:52.836Z,66.57
2022-10-05T19:48:28.516Z,66.14
2022-10-05T19:50:59.424Z,66.94
2022-10-05T19:53:36.336Z,67.56
2022-10-05T19:56:25.265Z,67.87
2022-10-05T19:58:57.400Z,68.65
2022-10-05T20:01:36.556Z,69.33
2022-10-05T20:04:06.084Z,68.62
2022-10-05T20:06:35.434Z,69.50
2022-10-05T20:09:21.015Z,67.93
2022-10-05T20:11:53.422Z,67.78
2022-10-05T20:14:30.974Z,68.31
2022-10-05T20:17:46.903Z,69.01
2022-10-05T20:20:39.343Z,69.72
2022-10-05T20:23:24.679Z,70.11
2022-10-05T20:26:12.035Z,69.65
2022-10-05T20:28:40.075Z,68.81
2022-10-05T20:31:08.645Z,68.46
2022-10-05T20:33:36.250Z,68.53
2022-10-05T20:36:04.211Z,68.11
2022-10-05T20:38:34.385Z,68.38
2022-10-05T20:41:03.724Z,68.48
2022-10-05T20:43:31.307Z,69.06
2022-10-05T20:45:58.761Z,69.03
2022-10-05T20:48:26.976Z,69.86
2022-10-05T20:50:54.901Z,70.38
2022-10-05T20:53:22.444Z,69.71
2022-10-05T20:55:50.048Z,70.01
2022-10-05T20:58:18.063Z,68.81
2022-10-05T21:01:20.943Z,68.90
2022-10-05T21:03:49.699Z,69.76
2022-10-05T21:06:18.366Z,70.39
2022-10-05T21:08:46.765Z,70.43
2022-10-05T21:11:15.016Z,71.28
2022-10-05T21:13:44.828Z,71.20
2022-10-05T21:16:14.264Z,71.32
2022-10-05T21:18:46.824Z,71.51
2022-10-05T21:21:18.163Z,73.38
2022-10-05T21:23:50.535Z,73.66
2022-10-05T21:26:17.978Z,73.81
2022-10-05T21:28:45.538Z,73.00
2022-10-05T21:31:15.165Z,72.88
2022-10-05T21:33:42.707Z,72.86
2022-10-05T21:36:10.405Z,72.41
2022-10-05T21:38:37.983Z,72.34
2022-10-05T21:41:05.712Z,73.87
2022-10-05T21:43:33.504Z,72.72
2022-10-05T21:46:01.665Z,71.56
2022-10-05T21:48:32.299Z,71.53
2022-10-05T21:51:00.946Z,71.55
2022-10-05T21:53:33.925Z,71.18
2022-10-05T21:56:06.072Z,71.38
2022-10-05T21:58:33.613Z,69.93
2022-10-05T22:01:01.238Z,67.72
2022-10-05T22:03:31.775Z,68.83
2022-10-05T22:05:59.321Z,69.17
2022-10-05T22:08:30.924Z,68.84
2022-10-05T22:11:00.824Z,69.15
2022-10-05T22:13:44.140Z,69.45
2022-10-05T22:16:12.217Z,69.96
2022-10-05T22:18:40.149Z,70.53
2022-10-05T22:21:12.123Z,70.16
2022-10-05T22:23:42.380Z,69.62
2022-10-05T22:26:14.081Z,71.06
2022-10-05T22:28:42.725Z,71.76
2022-10-05T22:31:12.531Z,70.65
2022-10-05T22:33:43.098Z,72.68
2022-10-05T22:36:10.797Z,70.08
2022-10-05T22:38:38.443Z,70.99
2022-10-05T22:41:11.407Z,71.27
2022-10-05T22:43:39.676Z,71.35
2022-10-05T22:46:14.301Z,70.85
2022-10-05T22:48:42.099Z,71.63
2022-10-05T22:51:10.343Z,72.58
2022-10-05T22:53:38.139Z,72.14
2022-10-05T22:56:11.138Z,72.53
2022-10-05T22:58:39.697Z,74.44
2022-10-05T23:01:11.190Z,73.98
2022-10-05T23:03:39.236Z,74.12
2022-10-05T23:06:10.903Z,74.03
2022-10-05T23:08:39.588Z,75.29
2022-10-05T23:11:17.075Z,74.66
2022-10-05T23:13:45.185Z,74.92
2022-10-05T23:16:19.151Z,74.68
2022-10-05T23:18:50.475Z,75.24
2022-10-05T23:21:19.906Z,74.79
2022-10-05T23:23:51.034Z,76.03
2022-10-05T23:26:22.295Z,76.80
2022-10-05T23:28:50.349Z,76.79
2022-10-05T23:31:22.760Z,76.45
2022-10-05T23:33:51.393Z,76.06
2022-10-05T23:36:22.481Z,76.10
2022-10-05T23:38:50.962Z,76.18
2022-10-05T23:41:22.198Z,76.72
2022-10-05T23:43:50.053Z,76.61
2022-10-05T23:46:18.169Z,77.94
2022-10-05T23:48:45.828Z,77.54
2022-10-05T23:51:15.849Z,76.86
2022-10-05T23:53:43.757Z,76.75
2022-10-05T23:56:11.493Z,76.65
2022-10-05T23:58:39.203Z,76.86
